Terminal Aerodrome Forecast
Issued by NWS

Home | Current Version | Previous Version | Text Only | Print | Product List | Glossary On
Versions: 1 2 3 4 5 6 7 8 9 10 11 12 13 14 15 16 17 18 19 20 21 22 23
000
FTUS45 KTFX 272343
TAFCTB
TAF
KCTB 272343Z 2800/2824 17007KT P6SM SCT090 BKN150
     FM280300 VRB05KT P6SM VCSH SCT040 BKN070 PROB30 2812/2818 3SM
      -SHSN BR BKN025
     FM281800 32011KT P6SM SCT060 BKN090=

USA.gov is the U.S. government's official web portal to all federal, state and local government web resources and services.